Time;durP1;ratioP1;P1;durP2;ratioP2;P2;SDS_P1;SDS_P2;PMS_P1;PMS_P2;Temp;Humidity;BMP_temperature;BMP_pressure;BME280_temperature;BME280_humidity;BME280_pressure;Samples;Min_cycle;Max_cycle;Signal;HPM_P1;HPM_P2
2023/10/27 00:00:00;;;;;;;7.40;3.05;;;;;;;10.89;100.00;98505.03;5216859;28;20112;-76
2023/10/27 00:02:31;;;;;;;5.75;3.08;;;;;;;10.84;100.00;98517.59;5216756;28;20027;-76
2023/10/27 00:05:01;;;;;;;4.25;2.83;;;;;;;10.95;100.00;98512.44;5220608;28;20108;-74
2023/10/27 00:07:31;;;;;;;5.65;3.20;;;;;;;10.80;100.00;98508.25;5220955;28;20616;-75
2023/10/27 00:10:02;;;;;;;4.82;3.25;;;;;;;10.75;100.00;98502.53;5218704;28;20528;-74
2023/10/27 00:12:32;;;;;;;7.40;3.60;;;;;;;10.77;100.00;98504.09;5217729;28;20036;-75
2023/10/27 00:15:03;;;;;;;6.65;3.55;;;;;;;10.81;100.00;98510.78;5201036;28;20025;-75
2023/10/27 00:17:33;;;;;;;9.30;3.83;;;;;;;10.81;100.00;98502.09;5219102;28;20593;-75
2023/10/27 00:20:05;;;;;;;4.68;3.22;;;;;;;10.78;100.00;98499.69;5223722;28;20051;-76
2023/10/27 00:22:35;;;;;;;10.63;3.45;;;;;;;10.77;100.00;98498.03;5214819;28;20044;-75
2023/10/27 00:25:07;;;;;;;5.00;3.38;;;;;;;10.82;100.00;98488.13;5215784;28;20029;-75
2023/10/27 00:27:38;;;;;;;5.18;3.20;;;;;;;10.83;100.00;98487.16;5220093;28;20033;-76
2023/10/27 00:30:09;;;;;;;5.95;3.30;;;;;;;10.87;100.00;98491.22;5216705;28;20067;-75
2023/10/27 00:32:40;;;;;;;5.60;3.25;;;;;;;10.79;100.00;98490.91;5216123;28;20477;-76
2023/10/27 00:35:10;;;;;;;5.82;3.53;;;;;;;10.83;100.00;98492.41;5215343;28;20033;-75
2023/10/27 00:37:41;;;;;;;7.28;3.65;;;;;;;10.74;100.00;98499.09;5207646;28;20071;-75
2023/10/27 00:40:12;;;;;;;4.97;3.10;;;;;;;10.80;100.00;98493.44;5224728;28;20028;-76
2023/10/27 00:42:43;;;;;;;6.43;3.78;;;;;;;10.79;100.00;98491.78;5215954;28;20509;-76
2023/10/27 00:45:13;;;;;;;6.03;3.15;;;;;;;10.67;100.00;98502.25;5201670;28;20029;-76
2023/10/27 00:47:43;;;;;;;6.20;3.45;;;;;;;10.72;100.00;98495.72;5220374;28;20028;-75
2023/10/27 00:50:14;;;;;;;9.73;3.90;;;;;;;10.63;100.00;98493.78;5221285;28;20021;-77
2023/10/27 00:52:44;;;;;;;7.15;3.50;;;;;;;10.60;100.00;98485.28;5222937;28;20618;-75
2023/10/27 00:55:15;;;;;;;7.72;3.80;;;;;;;10.61;100.00;98486.97;5224198;28;20424;-75
2023/10/27 00:57:48;;;;;;;6.60;3.60;;;;;;;10.67;100.00;98484.78;5220371;28;20584;-76
2023/10/27 01:00:18;;;;;;;5.40;3.60;;;;;;;10.57;100.00;98481.13;5220532;28;20033;-75
2023/10/27 01:02:49;;;;;;;7.85;3.47;;;;;;;10.58;100.00;98477.59;5220361;28;20090;-76
2023/10/27 01:05:19;;;;;;;4.93;3.30;;;;;;;10.56;100.00;98479.47;5221386;28;20067;-77
2023/10/27 01:07:50;;;;;;;5.13;3.35;;;;;;;10.62;100.00;98472.97;5224240;28;20035;-75
2023/10/27 01:10:20;;;;;;;7.57;3.40;;;;;;;10.61;100.00;98468.69;5220356;28;20017;-75
2023/10/27 01:12:51;;;;;;;6.72;3.35;;;;;;;10.57;100.00;98469.84;5223031;28;20498;-75
2023/10/27 01:15:24;;;;;;;5.80;3.00;;;;;;;10.62;100.00;98472.97;5222790;28;20067;-72
2023/10/27 01:17:54;;;;;;;5.55;3.30;;;;;;;10.65;100.00;98464.94;5219508;28;20040;-75
2023/10/27 01:20:25;;;;;;;6.70;3.35;;;;;;;10.61;100.00;98472.16;5222163;28;20394;-72
2023/10/27 01:22:55;;;;;;;5.47;3.53;;;;;;;10.58;100.00;98476.75;5223887;28;20025;-75
2023/10/27 01:25:25;;;;;;;5.40;3.28;;;;;;;10.59;100.00;98470.56;5220835;28;20060;-73
2023/10/27 01:27:58;;;;;;;5.28;2.97;;;;;;;10.73;100.00;98468.69;5223977;28;20020;-75
2023/10/27 01:30:29;;;;;;;5.72;3.42;;;;;;;10.73;100.00;98471.31;5219744;28;20040;-76
2023/10/27 01:32:59;;;;;;;6.05;3.40;;;;;;;10.63;100.00;98474.63;5220372;28;20036;-75
2023/10/27 01:35:30;;;;;;;4.93;3.20;;;;;;;10.64;100.00;98477.16;5219346;28;20033;-76
2023/10/27 01:38:01;;;;;;;7.00;3.10;;;;;;;10.65;100.00;98485.84;5221009;28;20029;-75
2023/10/27 01:40:32;;;;;;;6.55;3.03;;;;;;;10.62;100.00;98486.88;5222668;28;20115;-77
2023/10/27 01:43:02;;;;;;;7.10;3.28;;;;;;;10.58;100.00;98481.97;5226347;28;20683;-76
2023/10/27 01:45:33;;;;;;;8.32;3.35;;;;;;;10.60;100.00;98486.16;5219070;28;20486;-77
2023/10/27 01:48:03;;;;;;;7.70;3.58;;;;;;;10.61;100.00;98481.75;5220407;28;20512;-76
2023/10/27 01:50:33;;;;;;;5.72;3.30;;;;;;;10.67;100.00;98465.66;5219458;28;20308;-75
2023/10/27 01:53:04;;;;;;;5.55;3.50;;;;;;;10.56;100.00;98469.03;5222570;28;20052;-76
2023/10/27 01:55:34;;;;;;;6.80;3.17;;;;;;;10.50;100.00;98463.38;5219108;28;20033;-75
2023/10/27 01:58:05;;;;;;;4.10;2.78;;;;;;;10.57;100.00;98459.41;5222302;28;20037;-75
2023/10/27 02:00:36;;;;;;;5.90;3.10;;;;;;;10.63;100.00;98464.19;5220263;28;20037;-77
2023/10/27 02:03:06;;;;;;;9.63;3.35;;;;;;;10.36;100.00;98460.88;5220007;28;20064;-75
2023/10/27 02:05:43;;;;;;;7.38;3.25;;;;;;;10.39;100.00;98465.88;5219118;28;20037;-76
2023/10/27 02:08:13;;;;;;;5.85;3.40;;;;;;;10.43;100.00;98473.41;5220659;28;20078;-74
2023/10/27 02:10:44;;;;;;;5.40;3.38;;;;;;;10.39;100.00;98464.13;5218328;28;20710;-76
2023/10/27 02:13:14;;;;;;;5.95;3.60;;;;;;;10.35;100.00;98464.44;5226681;28;20344;-76
2023/10/27 02:15:45;;;;;;;4.55;2.90;;;;;;;10.42;100.00;98469.13;5219740;28;20028;-76
2023/10/27 02:18:15;;;;;;;9.27;3.30;;;;;;;10.37;100.00;98473.00;5219618;28;20111;-75
2023/10/27 02:20:49;;;;;;;5.45;3.33;;;;;;;10.34;100.00;98475.81;5228753;28;20144;-75
2023/10/27 02:23:19;;;;;;;9.50;3.28;;;;;;;10.32;100.00;98469.88;5219067;28;20112;-76
2023/10/27 02:25:49;;;;;;;8.85;3.80;;;;;;;10.28;100.00;98471.84;5218841;28;20112;-77
2023/10/27 02:28:20;;;;;;;10.40;3.60;;;;;;;10.42;100.00;98476.13;5221846;28;20104;-75
2023/10/27 02:30:51;;;;;;;6.03;3.60;;;;;;;10.51;100.00;98478.13;5218483;28;20048;-76
2023/10/27 02:33:21;;;;;;;5.22;3.42;;;;;;;10.38;100.00;98480.69;5219331;28;20031;-78
2023/10/27 02:35:51;;;;;;;7.18;2.90;;;;;;;10.43;100.00;98477.78;5225443;28;20120;-76
2023/10/27 02:38:21;;;;;;;5.88;2.78;;;;;;;10.44;100.00;98467.25;5221918;28;20120;-77
2023/10/27 02:40:52;;;;;;;3.95;2.58;;;;;;;10.46;100.00;98477.56;5217878;28;20033;-75
2023/10/27 02:43:22;;;;;;;5.72;2.95;;;;;;;10.44;100.00;98469.00;5223717;28;20044;-76
2023/10/27 02:46:02;;;;;;;4.43;2.58;;;;;;;10.41;100.00;98466.63;5218288;28;20367;-77
2023/10/27 02:48:32;;;;;;;3.50;2.70;;;;;;;10.35;100.00;98464.44;5222405;28;20033;-77
2023/10/27 02:51:02;;;;;;;4.15;2.45;;;;;;;10.27;100.00;98470.19;5221835;28;20051;-76
2023/10/27 02:53:33;;;;;;;7.68;3.33;;;;;;;10.30;100.00;98467.34;5216668;28;20033;-76
2023/10/27 02:56:08;;;;;;;4.28;2.92;;;;;;;10.31;100.00;98468.19;5219566;28;20024;-77
2023/10/27 02:58:38;;;;;;;10.35;3.20;;;;;;;10.25;100.00;98468.59;5218115;28;20028;-77
2023/10/27 03:01:09;;;;;;;5.00;3.42;;;;;;;10.29;100.00;98464.81;5219221;28;20021;-76
2023/10/27 03:03:41;;;;;;;4.93;3.20;;;;;;;10.31;100.00;98458.56;5219554;28;20033;-77
2023/10/27 03:06:12;;;;;;;5.60;3.10;;;;;;;10.29;100.00;98459.59;5220554;28;20033;-76
2023/10/27 03:08:42;;;;;;;5.72;3.22;;;;;;;10.29;100.00;98451.78;5201489;28;20028;-77
2023/10/27 03:11:13;;;;;;;4.90;2.88;;;;;;;10.27;100.00;98462.34;5219152;28;20021;-76
2023/10/27 03:13:43;;;;;;;6.05;3.30;;;;;;;10.30;100.00;98454.28;5223839;28;20212;-75
2023/10/27 03:16:16;;;;;;;4.72;3.00;;;;;;;10.24;100.00;98454.72;5220784;28;20370;-76
2023/10/27 03:18:46;;;;;;;7.28;3.42;;;;;;;10.23;100.00;98458.28;5216319;28;20610;-75
2023/10/27 03:21:16;;;;;;;6.15;3.05;;;;;;;10.08;100.00;98461.91;5221479;28;20064;-75
2023/10/27 03:23:47;;;;;;;4.63;3.20;;;;;;;10.12;100.00;98459.91;5218062;28;20484;-75
2023/10/27 03:26:17;;;;;;;6.85;2.80;;;;;;;10.00;100.00;98458.94;5221806;28;20024;-73
2023/10/27 03:28:48;;;;;;;6.63;3.95;;;;;;;9.96;100.00;98447.03;5218870;28;20028;-76
2023/10/27 03:31:18;;;;;;;8.18;4.50;;;;;;;9.84;100.00;98449.63;5218080;28;20024;-75
2023/10/27 03:33:49;;;;;;;5.85;3.70;;;;;;;9.83;100.00;98451.41;5217851;28;20053;-77
2023/10/27 03:36:19;;;;;;;7.32;3.65;;;;;;;9.76;100.00;98450.16;5217664;28;20052;-77
2023/10/27 03:38:49;;;;;;;8.18;3.85;;;;;;;9.91;100.00;98459.56;5217780;28;20021;-76
2023/10/27 03:41:20;;;;;;;30.10;6.68;;;;;;;9.80;100.00;98450.78;5220999;28;20036;-75
2023/10/27 03:43:50;;;;;;;13.82;3.40;;;;;;;9.69;100.00;98443.66;5218906;28;20025;-76
2023/10/27 03:46:20;;;;;;;8.93;3.30;;;;;;;9.63;100.00;98448.47;5217765;28;20048;-75
2023/10/27 03:48:50;;;;;;;5.00;2.90;;;;;;;9.76;100.00;98449.28;5217766;28;20046;-75
2023/10/27 03:51:21;;;;;;;14.52;2.95;;;;;;;9.68;100.00;98444.59;5220237;28;20029;-76
2023/10/27 03:53:54;;;;;;;5.03;2.30;;;;;;;9.70;100.00;98450.56;5216326;28;20438;-76
2023/10/27 03:56:24;;;;;;;5.60;3.08;;;;;;;9.67;100.00;98436.88;5199098;28;20296;-71
2023/10/27 03:58:54;;;;;;;7.70;2.28;;;;;;;9.47;100.00;98439.97;5217433;28;20032;-76
2023/10/27 04:01:27;;;;;;;10.65;2.92;;;;;;;9.36;100.00;98442.41;5216881;28;20036;-75
2023/10/27 04:03:57;;;;;;;9.15;2.63;;;;;;;9.46;100.00;98443.50;5215194;28;20025;-75
2023/10/27 04:06:28;;;;;;;9.32;2.45;;;;;;;9.42;100.00;98442.00;5215881;28;20025;-75
2023/10/27 04:08:58;;;;;;;3.35;2.20;;;;;;;9.48;100.00;98439.03;5220030;28;20249;-75
2023/10/27 04:11:29;;;;;;;3.15;2.33;;;;;;;9.39;100.00;98437.00;5215635;28;20470;-75
2023/10/27 04:13:59;;;;;;;3.60;2.70;;;;;;;9.36;100.00;98429.38;5219174;28;20052;-75
2023/10/27 04:16:30;;;;;;;3.85;2.60;;;;;;;9.34;100.00;98437.28;5215825;28;20067;-77
2023/10/27 04:19:00;;;;;;;3.85;2.55;;;;;;;9.46;100.00;98438.28;5198701;28;20132;-72
2023/10/27 04:21:31;;;;;;;3.55;2.40;;;;;;;9.49;100.00;98435.47;5219000;28;20025;-76
2023/10/27 04:24:01;;;;;;;3.95;2.40;;;;;;;9.46;100.00;98435.69;5218732;28;20021;-73
2023/10/27 04:26:31;;;;;;;3.40;2.30;;;;;;;9.32;100.00;98431.34;5216837;28;20058;-76
2023/10/27 04:29:01;;;;;;;3.55;2.40;;;;;;;9.38;100.00;98427.50;5219348;28;20028;-76
2023/10/27 04:31:32;;;;;;;3.97;2.10;;;;;;;9.19;100.00;98435.69;5215732;28;20036;-76
2023/10/27 04:34:03;;;;;;;3.90;2.90;;;;;;;9.30;100.00;98435.00;5222780;28;20029;-75
2023/10/27 04:36:34;;;;;;;5.40;2.40;;;;;;;9.19;100.00;98433.09;5216097;28;20036;-75
2023/10/27 04:39:04;;;;;;;5.75;2.60;;;;;;;9.25;100.00;98437.03;5215795;28;20032;-74
2023/10/27 04:41:34;;;;;;;4.45;2.08;;;;;;;9.17;100.00;98434.94;5198598;28;20406;-75
2023/10/27 04:44:05;;;;;;;2.85;2.00;;;;;;;9.28;100.00;98436.88;5212512;28;20180;-76
2023/10/27 04:46:36;;;;;;;3.75;2.20;;;;;;;9.28;100.00;98436.88;5214505;28;20021;-76
2023/10/27 04:49:06;;;;;;;2.85;1.90;;;;;;;9.30;100.00;98448.03;5218508;28;20033;-75
2023/10/27 04:51:36;;;;;;;3.05;2.30;;;;;;;9.16;100.00;98435.88;5216483;28;20035;-75
2023/10/27 04:54:06;;;;;;;3.40;2.25;;;;;;;9.28;100.00;98436.88;5217109;28;20650;-71
2023/10/27 04:56:37;;;;;;;4.93;2.20;;;;;;;9.27;100.00;98430.81;5200239;28;20284;-75
2023/10/27 04:59:07;;;;;;;3.03;2.20;;;;;;;9.36;100.00;98435.44;5217413;28;20027;-75
2023/10/27 05:01:37;;;;;;;3.42;2.10;;;;;;;9.38;100.00;98430.13;5217139;28;20029;-75
2023/10/27 05:04:08;;;;;;;4.57;2.70;;;;;;;9.34;100.00;98426.03;5218269;28;20033;-73
2023/10/27 05:06:38;;;;;;;5.95;2.70;;;;;;;9.34;100.00;98441.69;5217038;28;20028;-75
2023/10/27 05:09:10;;;;;;;3.50;2.65;;;;;;;9.47;100.00;98438.16;5215727;28;20378;-76
2023/10/27 05:11:40;;;;;;;5.28;2.55;;;;;;;9.39;100.00;98429.19;5215653;28;20025;-72
2023/10/27 05:14:12;;;;;;;8.82;3.20;;;;;;;9.34;100.00;98431.25;5217256;28;20036;-76
2023/10/27 05:16:42;;;;;;;4.53;3.22;;;;;;;9.47;100.00;98429.53;5212412;28;20497;-76
2023/10/27 05:19:13;;;;;;;3.88;2.70;;;;;;;9.51;100.00;98431.00;5215356;28;20021;-74
2023/10/27 05:21:43;;;;;;;6.47;2.90;;;;;;;9.49;100.00;98425.88;5216432;28;20024;-75
2023/10/27 05:24:13;;;;;;;5.32;2.72;;;;;;;9.48;100.00;98428.59;5218179;28;20478;-75
2023/10/27 05:26:43;;;;;;;7.07;2.60;;;;;;;9.34;100.00;98418.22;5216165;28;20036;-74
2023/10/27 05:29:14;;;;;;;3.88;2.70;;;;;;;9.38;100.00;98428.34;5217898;28;20124;-75
2023/10/27 05:31:46;;;;;;;5.55;2.50;;;;;;;9.46;100.00;98425.25;5219252;28;20032;-75
2023/10/27 05:34:16;;;;;;;4.68;3.05;;;;;;;9.45;100.00;98423.59;5204520;28;20497;-76
2023/10/27 05:36:47;;;;;;;6.15;2.80;;;;;;;9.41;100.00;98428.16;5204646;28;20115;-75
2023/10/27 05:39:17;;;;;;;3.75;2.60;;;;;;;9.46;100.00;98426.06;5222219;28;20482;-76
2023/10/27 05:41:48;;;;;;;4.03;2.40;;;;;;;9.47;100.00;98416.50;5219356;28;20032;-75
2023/10/27 05:44:18;;;;;;;3.88;2.63;;;;;;;9.61;100.00;98419.00;5220759;28;20437;-75
2023/10/27 05:46:48;;;;;;;6.50;2.92;;;;;;;9.54;100.00;98420.38;5219388;28;20033;-75
2023/10/27 05:49:19;;;;;;;3.75;2.28;;;;;;;9.58;100.00;98419.22;5222224;28;20012;-75
2023/10/27 05:51:49;;;;;;;11.73;2.97;;;;;;;9.61;100.00;98413.78;5221480;28;20076;-76
2023/10/27 05:54:20;;;;;;;4.05;2.55;;;;;;;9.52;100.00;98430.06;5224728;28;20020;-76
2023/10/27 05:56:51;;;;;;;4.43;2.58;;;;;;;9.53;100.00;98418.69;5219713;28;20033;-76
2023/10/27 05:59:21;;;;;;;3.35;2.35;;;;;;;9.62;100.00;98425.94;5221916;28;20033;-75
2023/10/27 06:01:54;;;;;;;3.53;2.33;;;;;;;9.67;100.00;98429.88;5222745;28;20032;-73
2023/10/27 06:04:24;;;;;;;4.88;2.70;;;;;;;9.60;100.00;98438.19;5220777;28;20024;-72
2023/10/27 06:06:55;;;;;;;5.80;2.58;;;;;;;9.57;100.00;98435.81;5224167;28;20407;-75
2023/10/27 06:09:27;;;;;;;5.50;2.50;;;;;;;9.59;100.00;98431.31;5219576;28;20025;-75
2023/10/27 06:11:57;;;;;;;4.20;2.80;;;;;;;9.65;100.00;98430.94;5220274;28;20107;-75
2023/10/27 06:14:28;;;;;;;3.17;2.28;;;;;;;9.81;100.00;98442.03;5220713;28;20111;-74
2023/10/27 06:16:58;;;;;;;3.40;2.35;;;;;;;9.93;100.00;98442.03;5224086;28;20040;-75
2023/10/27 06:19:30;;;;;;;7.35;2.40;;;;;;;9.81;100.00;98442.84;5218724;28;20215;-76
2023/10/27 06:22:01;;;;;;;5.30;2.60;;;;;;;9.84;100.00;98447.03;5223968;28;20525;-76
2023/10/27 06:24:31;;;;;;;4.60;2.58;;;;;;;9.82;100.00;98441.91;5217426;28;20025;-75
2023/10/27 06:27:03;;;;;;;4.60;3.08;;;;;;;9.87;100.00;98452.03;5222011;28;20123;-73
2023/10/27 06:29:34;;;;;;;7.95;3.15;;;;;;;9.81;100.00;98455.06;5201586;28;20036;-72
2023/10/27 06:32:04;;;;;;;4.88;2.85;;;;;;;9.87;100.00;98452.03;5221285;28;20433;-76
2023/10/27 06:34:34;;;;;;;6.78;3.80;;;;;;;9.83;100.00;98448.78;5219466;28;20051;-72
2023/10/27 06:37:05;;;;;;;5.15;3.50;;;;;;;9.74;100.00;98443.34;5222092;28;20078;-76
2023/10/27 06:39:35;;;;;;;8.40;3.72;;;;;;;9.60;100.00;98443.41;5221133;28;20098;-74
2023/10/27 06:42:06;;;;;;;9.52;3.20;;;;;;;9.51;100.00;98450.06;5225616;28;20324;-75
2023/10/27 06:44:36;;;;;;;6.10;3.65;;;;;;;9.61;100.00;98448.53;5220684;28;20486;-72
2023/10/27 06:47:07;;;;;;;6.30;4.03;;;;;;;9.67;100.00;98449.91;5222102;28;20189;-75
2023/10/27 06:49:37;;;;;;;9.98;4.18;;;;;;;9.69;100.00;98442.81;5221150;28;20067;-72
2023/10/27 06:52:07;;;;;;;8.10;4.90;;;;;;;9.71;100.00;98439.19;5227315;28;20048;-74
2023/10/27 06:54:38;;;;;;;8.23;4.45;;;;;;;9.92;100.00;98447.34;5236276;28;20040;-75
2023/10/27 06:57:08;;;;;;;7.90;4.22;;;;;;;9.87;100.00;98450.28;5219471;28;20029;-77
2023/10/27 06:59:38;;;;;;;8.73;4.75;;;;;;;9.98;100.00;98450.38;5217633;28;20419;-76
2023/10/27 07:02:09;;;;;;;8.32;4.70;;;;;;;9.93;100.00;98446.41;5222927;28;20036;-75
2023/10/27 07:04:39;;;;;;;8.45;4.68;;;;;;;10.04;100.00;98454.38;5219291;28;20037;-74
2023/10/27 07:07:09;;;;;;;8.57;4.45;;;;;;;10.03;100.00;98447.50;5221456;28;20266;-76
2023/10/27 07:09:40;;;;;;;9.43;4.75;;;;;;;10.06;100.00;98448.16;5221160;28;20094;-73
2023/10/27 07:12:10;;;;;;;9.43;4.85;;;;;;;10.15;100.00;98450.13;5220943;28;20044;-75
2023/10/27 07:14:40;;;;;;;9.30;5.10;;;;;;;10.22;100.00;98453.16;5226783;28;20120;-75
2023/10/27 07:17:11;;;;;;;9.90;5.22;;;;;;;10.20;100.00;98448.03;5222325;28;20082;-74
2023/10/27 07:19:41;;;;;;;10.35;5.28;;;;;;;10.24;100.00;98446.03;5218456;28;20493;-75
2023/10/27 07:22:13;;;;;;;9.90;5.32;;;;;;;10.30;100.00;98450.84;5227324;28;20049;-76
2023/10/27 07:24:43;;;;;;;11.82;6.15;;;;;;;10.37;100.00;98442.47;5220041;28;20028;-73
2023/10/27 07:27:14;;;;;;;9.98;5.53;;;;;;;10.48;100.00;98449.59;5215350;28;20329;-76
2023/10/27 07:29:46;;;;;;;10.15;5.38;;;;;;;10.43;100.00;98443.84;5224655;28;20105;-76
2023/10/27 07:32:17;;;;;;;10.60;5.18;;;;;;;10.45;100.00;98450.63;5203514;28;20040;-75
2023/10/27 07:34:48;;;;;;;10.77;5.45;;;;;;;10.43;100.00;98455.13;5224210;28;20020;-73
2023/10/27 07:37:20;;;;;;;12.20;5.90;;;;;;;10.48;100.00;98457.44;5221728;28;20166;-75
2023/10/27 07:39:50;;;;;;;9.68;5.22;;;;;;;10.46;100.00;98460.13;5201894;28;20028;-72
2023/10/27 07:42:20;;;;;;;11.40;5.72;;;;;;;10.61;100.00;98460.84;5221513;28;20196;-75
2023/10/27 07:44:51;;;;;;;11.10;5.90;;;;;;;10.74;100.00;98461.66;5217059;28;20167;-75
2023/10/27 07:47:21;;;;;;;9.25;5.00;;;;;;;10.75;100.00;98456.34;5223100;28;21407;-76
2023/10/27 07:49:52;;;;;;;10.05;5.60;;;;;;;10.82;100.00;98459.38;5221192;28;20496;-75
2023/10/27 07:52:22;;;;;;;11.40;5.20;;;;;;;10.93;100.00;98456.81;5224763;28;20059;-76
2023/10/27 07:54:53;;;;;;;12.93;5.63;;;;;;;10.76;100.00;98454.56;5223483;28;20052;-76
2023/10/27 07:57:23;;;;;;;9.95;5.55;;;;;;;10.72;100.00;98459.16;5222422;28;20446;-75
2023/10/27 07:59:54;;;;;;;12.27;5.35;;;;;;;10.68;100.00;98459.50;5221202;28;20052;-75
2023/10/27 08:02:24;;;;;;;13.13;5.60;;;;;;;10.80;100.00;98451.63;5221733;28;20025;-71
2023/10/27 08:04:54;;;;;;;9.95;4.95;;;;;;;10.81;100.00;98458.53;5220357;28;20176;-76
2023/10/27 08:07:25;;;;;;;9.05;5.07;;;;;;;10.93;100.00;98454.22;5220768;28;20032;-75
2023/10/27 08:09:56;;;;;;;11.38;5.95;;;;;;;10.81;100.00;98457.69;5220693;28;20405;-76
2023/10/27 08:12:26;;;;;;;11.68;5.97;;;;;;;10.78;100.00;98455.28;5220059;28;20053;-76
2023/10/27 08:14:57;;;;;;;11.18;5.55;;;;;;;10.90;100.00;98457.91;5218024;28;20025;-75
2023/10/27 08:17:27;;;;;;;10.18;5.97;;;;;;;10.90;100.00;98454.44;5222476;28;20320;-76
2023/10/27 08:19:58;;;;;;;12.85;5.93;;;;;;;10.94;100.00;98458.50;5220616;28;20047;-76
2023/10/27 08:22:28;;;;;;;15.55;7.05;;;;;;;10.96;100.00;98459.22;5221771;28;20025;-76
2023/10/27 08:24:59;;;;;;;13.68;6.47;;;;;;;10.93;100.00;98462.91;5219995;28;20474;-76
2023/10/27 08:27:30;;;;;;;12.88;6.93;;;;;;;10.96;100.00;98462.69;5219439;28;20059;-76
2023/10/27 08:30:00;;;;;;;13.88;6.90;;;;;;;10.95;100.00;98468.00;5202912;28;20041;-76
2023/10/27 08:32:31;;;;;;;15.13;6.68;;;;;;;11.08;100.00;98470.47;5219440;28;20029;-76
2023/10/27 08:35:01;;;;;;;14.82;7.07;;;;;;;11.00;100.00;98476.38;5222789;28;20021;-75
2023/10/27 08:37:31;;;;;;;16.10;7.68;;;;;;;11.07;100.00;98476.66;5218537;28;20032;-77
2023/10/27 08:40:03;;;;;;;13.93;7.28;;;;;;;11.09;100.00;98480.00;5220600;28;20029;-76
2023/10/27 08:42:33;;;;;;;15.57;7.57;;;;;;;11.12;100.00;98479.75;5216838;28;20053;-76
2023/10/27 08:45:05;;;;;;;16.25;7.70;;;;;;;11.07;100.00;98475.84;5223401;28;20063;-74
2023/10/27 08:47:36;;;;;;;16.05;7.50;;;;;;;11.16;100.00;98489.09;5219069;28;20056;-75
2023/10/27 08:50:06;;;;;;;15.82;7.78;;;;;;;11.11;100.00;98485.13;5223508;28;20120;-77
2023/10/27 08:52:39;;;;;;;17.17;6.90;;;;;;;11.10;100.00;98481.66;5224618;28;20029;-76
2023/10/27 08:55:10;;;;;;;15.70;7.57;;;;;;;11.05;100.00;98475.94;5220304;28;20029;-76
2023/10/27 08:57:41;;;;;;;21.02;9.35;;;;;;;11.13;100.00;98476.19;5220258;28;20040;-75
2023/10/27 09:00:12;;;;;;;20.52;10.02;;;;;;;11.07;100.00;98471.44;5220167;28;20040;-76
2023/10/27 09:02:42;;;;;;;22.85;10.23;;;;;;;11.11;100.00;98465.03;5219394;28;20032;-76
2023/10/27 09:05:13;;;;;;;23.60;9.85;;;;;;;11.13;100.00;98465.75;5227712;28;20082;-76
2023/10/27 09:07:45;;;;;;;23.45;10.10;;;;;;;11.13;100.00;98460.53;5223546;28;20604;-76
2023/10/27 09:10:19;;;;;;;24.25;10.93;;;;;;;11.07;100.00;98463.59;5206794;28;20481;-76
2023/10/27 09:12:57;;;;;;;26.02;11.10;;;;;;;11.23;100.00;98471.16;5225532;28;20025;-72
2023/10/27 09:15:40;;;;;;;26.27;10.88;;;;;;;11.31;100.00;98458.38;5207694;28;20063;-73
2023/10/27 09:18:11;;;;;;;24.90;11.10;;;;;;;11.34;100.00;98456.38;5228705;28;20037;-77
2023/10/27 09:20:52;;;;;;;27.40;11.43;;;;;;;11.37;100.00;98464.00;5225459;28;20044;-72
2023/10/27 09:23:22;;;;;;;21.45;9.82;;;;;;;11.35;100.00;98458.06;5224840;28;20125;-76
2023/10/27 09:25:56;;;;;;;24.95;11.80;;;;;;;11.56;100.00;98461.75;5229207;28;20025;-77
2023/10/27 09:28:28;;;;;;;23.48;10.93;;;;;;;11.64;100.00;98466.44;5206452;28;20024;-74
2023/10/27 09:30:58;;;;;;;21.65;10.02;;;;;;;11.63;100.00;98464.75;5223475;28;20029;-76
2023/10/27 09:33:29;;;;;;;27.55;11.50;;;;;;;11.66;100.00;98460.16;5223945;28;20134;-77
2023/10/27 09:36:02;;;;;;;23.45;10.45;;;;;;;11.73;100.00;98461.34;5223482;28;20056;-76
2023/10/27 09:38:33;;;;;;;24.42;11.57;;;;;;;11.56;100.00;98464.38;5222748;28;20060;-76
2023/10/27 09:41:07;;;;;;;24.08;11.23;;;;;;;11.56;100.00;98461.75;5223526;28;20563;-77
2023/10/27 09:43:40;;;;;;;19.92;9.93;;;;;;;11.54;100.00;98458.38;5224914;28;20028;-76
2023/10/27 09:46:12;;;;;;;23.50;10.00;;;;;;;11.66;100.00;98460.16;5225816;28;20025;-76
2023/10/27 09:48:42;;;;;;;20.58;9.70;;;;;;;11.67;100.00;98451.34;5223905;28;20507;-76
2023/10/27 09:51:17;;;;;;;20.60;10.40;;;;;;;11.75;100.00;98448.97;5227285;28;20041;-76
2023/10/27 09:53:50;;;;;;;18.60;9.30;;;;;;;11.86;100.00;98456.03;5226907;28;20035;-76
2023/10/27 09:56:20;;;;;;;23.40;10.93;;;;;;;11.77;100.00;98452.31;5224705;28;20486;-76
2023/10/27 09:58:51;;;;;;;22.05;10.88;;;;;;;11.79;100.00;98444.38;5222623;28;20196;-76
2023/10/27 10:01:22;;;;;;;21.30;10.07;;;;;;;11.86;100.00;98450.81;5223895;28;20028;-77
2023/10/27 10:03:52;;;;;;;22.73;10.65;;;;;;;11.84;100.00;98437.84;5222653;28;20129;-76
2023/10/27 10:06:25;;;;;;;21.17;10.45;;;;;;;11.84;100.00;98445.69;5229076;28;20021;-76
2023/10/27 10:09:14;;;;;;;20.23;9.82;;;;;;;11.83;100.00;98443.19;5229934;28;20505;-72
2023/10/27 10:11:47;;;;;;;19.23;9.52;;;;;;;11.87;100.00;98444.63;5225071;28;20432;-77
2023/10/27 10:14:36;;;;;;;22.45;10.02;;;;;;;11.81;100.00;98442.47;5225279;28;20194;-76
2023/10/27 10:17:06;;;;;;;18.75;9.43;;;;;;;11.90;100.00;98447.84;5218933;28;20116;-75
2023/10/27 10:19:55;;;;;;;19.17;9.80;;;;;;;11.94;100.00;98446.66;5220749;28;20108;-75
2023/10/27 10:22:37;;;;;;;20.13;9.73;;;;;;;11.91;100.00;98446.91;5223183;28;20035;-76
2023/10/27 10:25:21;;;;;;;17.15;9.07;;;;;;;12.11;100.00;98454.09;5220679;28;20028;-76
2023/10/27 10:28:10;;;;;;;17.55;9.30;;;;;;;12.17;100.00;98455.41;5201181;28;20576;-75
2023/10/27 10:30:43;;;;;;;18.98;9.43;;;;;;;12.06;100.00;98461.47;5207054;28;20289;-72
2023/10/27 10:33:16;;;;;;;22.35;9.93;;;;;;;12.06;100.00;98464.06;5219758;28;20124;-75
2023/10/27 10:35:47;;;;;;;22.58;10.88;;;;;;;11.92;100.00;98466.06;5216220;28;20047;-76
2023/10/27 10:38:24;;;;;;;23.38;11.45;;;;;;;11.94;100.00;98469.41;5220784;28;20036;-75
2023/10/27 10:40:58;;;;;;;25.00;11.85;;;;;;;11.81;100.00;98458.97;5224348;28;20508;-76
2023/10/27 10:43:40;;;;;;;24.25;11.07;;;;;;;11.84;100.00;98453.56;5204562;28;20044;-75
2023/10/27 10:46:13;;;;;;;27.02;11.45;;;;;;;11.89;100.00;98459.25;5206594;28;20071;-76
2023/10/27 10:48:45;;;;;;;26.02;11.85;;;;;;;11.81;100.00;98456.38;5212802;28;20024;-75
2023/10/27 10:51:29;;;;;;;27.90;11.73;;;;;;;11.80;100.00;98461.72;5226444;28;20032;-76
2023/10/27 10:53:59;;;;;;;25.45;11.75;;;;;;;11.81;100.00;98456.38;5223354;28;20060;-73
2023/10/27 10:56:29;;;;;;;29.83;11.98;;;;;;;11.78;100.00;98453.97;5223461;28;20438;-78
2023/10/27 10:59:03;;;;;;;27.80;11.98;;;;;;;12.01;100.00;98460.13;5226391;28;20025;-74
2023/10/27 11:01:34;;;;;;;26.67;11.63;;;;;;;11.82;100.00;98458.03;5222782;28;20032;-77
2023/10/27 11:04:05;;;;;;;31.58;12.38;;;;;;;11.83;100.00;98451.88;5225944;28;20028;-75
2023/10/27 11:06:35;;;;;;;30.42;12.02;;;;;;;11.73;100.00;98460.50;5223671;28;20028;-75
2023/10/27 11:09:05;;;;;;;29.67;13.10;;;;;;;11.86;100.00;98456.03;5221082;28;20040;-72
2023/10/27 11:11:35;;;;;;;31.98;12.10;;;;;;;11.82;100.00;98455.41;5219521;28;20159;-75
2023/10/27 11:14:06;;;;;;;31.83;13.40;;;;;;;11.78;100.00;98456.59;5221645;28;20021;-73
2023/10/27 11:16:36;;;;;;;32.90;13.77;;;;;;;11.87;100.00;98458.56;5219733;28;20486;-75
2023/10/27 11:19:18;;;;;;;29.17;12.30;;;;;;;11.74;100.00;98463.00;5221511;28;20039;-76
2023/10/27 11:21:53;;;;;;;29.63;12.93;;;;;;;11.83;100.00;98451.88;5222636;28;20100;-77
2023/10/27 11:24:23;;;;;;;31.02;13.65;;;;;;;11.82;100.00;98450.19;5204250;28;20372;-76
2023/10/27 11:26:54;;;;;;;33.65;13.48;;;;;;;11.85;100.00;98449.97;5220690;28;20154;-76
2023/10/27 11:29:24;;;;;;;33.15;13.07;;;;;;;11.76;100.00;98440.19;5220364;28;20063;-72
2023/10/27 11:31:55;;;;;;;34.15;12.93;;;;;;;11.86;100.00;98450.81;5220344;28;20107;-76
2023/10/27 11:34:27;;;;;;;31.15;12.52;;;;;;;11.72;100.00;98441.38;5219649;28;20029;-73
2023/10/27 11:37:00;;;;;;;31.10;12.35;;;;;;;11.82;100.00;98439.72;5218652;28;20112;-76
2023/10/27 11:39:33;;;;;;;32.35;12.80;;;;;;;11.83;100.00;98435.34;5218718;28;20032;-74
2023/10/27 11:42:04;;;;;;;32.45;13.90;;;;;;;11.97;100.00;98443.00;5223826;28;20103;-74